Time;durP1;ratioP1;P1;durP2;ratioP2;P2;SDS_P1;SDS_P2;PMS_P1;PMS_P2;Temp;Humidity;BMP_temperature;BMP_pressure;BME280_temperature;BME280_humidity;BME280_pressure;Samples;Min_cycle;Max_cycle;Signal;HPM_P1;HPM_P2
2022/08/30 00:01:01;;;;;;;9.08;7.35;;;;;;;22.11;60.14;100803.36;483375;109;930538;-77
2022/08/30 00:01:41;;;;;;;9.12;7.22;;;;;;;22.12;60.20;100805.00;493643;107;922530;-76
2022/08/30 00:02:44;;;;;;;8.28;7.03;;;;;;;22.13;60.23;100809.44;493773;107;922955;-77
2022/08/30 00:03:47;;;;;;;9.37;6.95;;;;;;;22.14;60.22;100811.11;493736;107;930511;-77
2022/08/30 00:04:52;;;;;;;9.09;7.81;;;;;;;22.15;60.23;100808.05;493782;107;922544;-77
2022/08/30 00:05:56;;;;;;;11.33;7.71;;;;;;;22.15;60.18;100807.22;493643;107;925179;-77
2022/08/30 00:07:01;;;;;;;10.23;8.45;;;;;;;22.14;60.19;100806.39;493918;107;922499;-77
2022/08/30 00:08:04;;;;;;;8.77;7.93;;;;;;;22.15;60.19;100805.27;493669;107;922545;-77
2022/08/30 00:09:07;;;;;;;9.01;7.71;;;;;;;22.15;60.28;100805.27;493852;105;922774;-77
2022/08/30 00:10:11;;;;;;;10.81;7.64;;;;;;;22.16;60.31;100803.33;493773;107;922527;-77
2022/08/30 00:11:18;;;;;;;8.53;7.73;;;;;;;22.16;60.31;100806.11;493697;107;930383;-78
2022/08/30 00:12:21;;;;;;;9.78;7.66;;;;;;;22.17;60.33;100805.80;493633;107;922556;-78
2022/08/30 00:13:24;;;;;;;8.83;7.62;;;;;;;22.18;60.29;100804.69;493850;107;922381;-77
2022/08/30 00:14:27;;;;;;;12.68;7.34;;;;;;;22.18;60.35;100804.69;493847;107;922571;-77
2022/08/30 00:15:31;;;;;;;8.24;7.08;;;;;;;22.19;60.32;100805.52;494574;107;922823;-77
2022/08/30 00:16:34;;;;;;;9.53;7.25;;;;;;;22.19;60.31;100806.36;495176;107;922538;-77
2022/08/30 00:17:38;;;;;;;10.86;7.19;;;;;;;22.20;60.17;100801.63;495277;107;923167;-77
2022/08/30 00:18:42;;;;;;;9.71;7.64;;;;;;;22.21;60.11;100806.91;495119;107;923031;-76
2022/08/30 00:19:46;;;;;;;9.25;7.31;;;;;;;22.21;59.93;100808.86;495098;107;922547;-75
2022/08/30 00:20:50;;;;;;;7.69;6.53;;;;;;;22.17;59.74;100807.74;495225;107;930550;-76
2022/08/30 00:21:54;;;;;;;12.27;7.39;;;;;;;22.17;59.74;100807.74;495029;107;922511;-76
2022/08/30 00:22:57;;;;;;;9.41;6.77;;;;;;;22.15;59.65;100810.00;495258;107;923113;-76
2022/08/30 00:24:01;;;;;;;9.74;7.44;;;;;;;22.11;59.61;100812.50;495242;107;922610;-77
2022/08/30 00:25:04;;;;;;;8.42;7.49;;;;;;;22.10;59.70;100813.64;495262;107;922593;-76
2022/08/30 00:26:08;;;;;;;10.32;6.84;;;;;;;22.08;59.73;100812.25;495196;107;922484;-76
2022/08/30 00:27:11;;;;;;;8.14;6.48;;;;;;;22.06;59.75;100818.08;495201;107;922933;-77
2022/08/30 00:28:15;;;;;;;10.76;7.56;;;;;;;22.04;59.73;100806.45;495196;107;922957;-76
2022/08/30 00:29:19;;;;;;;8.72;6.76;;;;;;;22.01;59.68;100810.61;495189;107;923037;-76
2022/08/30 00:30:22;;;;;;;8.06;6.61;;;;;;;21.98;59.62;100811.19;505322;104;922504;-76
2022/08/30 00:31:25;;;;;;;7.57;6.73;;;;;;;21.95;59.76;100808.97;496626;104;922439;-76
2022/08/30 00:32:29;;;;;;;7.97;7.22;;;;;;;21.92;59.75;100811.46;495234;107;922868;-76
2022/08/30 00:33:33;;;;;;;11.30;7.30;;;;;;;21.89;59.79;100806.46;495154;107;922826;-77
2022/08/30 00:34:36;;;;;;;9.52;7.81;;;;;;;21.87;59.85;100814.27;495281;107;922571;-77
2022/08/30 00:35:40;;;;;;;12.03;8.21;;;;;;;21.83;59.88;100810.40;495326;107;922555;-77
2022/08/30 00:36:44;;;;;;;8.88;7.51;;;;;;;21.80;59.93;100800.68;494567;107;922487;-78
2022/08/30 00:37:47;;;;;;;8.72;8.00;;;;;;;21.78;59.99;100804.84;489940;108;922542;-76
2022/08/30 00:38:50;;;;;;;7.26;6.53;;;;;;;21.75;60.13;100806.25;490003;106;922623;-76
2022/08/30 00:39:53;;;;;;;9.66;7.08;;;;;;;21.75;60.28;100806.25;490063;108;922613;-76
2022/08/30 00:40:58;;;;;;;8.67;7.43;;;;;;;21.76;60.45;100813.48;490024;108;922816;-77
2022/08/30 00:42:01;;;;;;;9.40;8.36;;;;;;;21.76;60.52;100813.48;489847;108;922636;-76
2022/08/30 00:43:08;;;;;;;8.59;7.26;;;;;;;21.79;60.68;100806.51;490039;108;923106;-76
2022/08/30 00:44:13;;;;;;;13.91;7.63;;;;;;;21.79;60.68;100806.51;489741;108;923146;-76
2022/08/30 00:45:23;;;;;;;7.69;6.92;;;;;;;21.81;60.84;100807.06;490028;108;922451;-77
2022/08/30 00:46:27;;;;;;;12.58;7.61;;;;;;;21.81;60.81;100813.45;489521;108;922589;-77
2022/08/30 00:47:30;;;;;;;10.01;6.46;;;;;;;21.82;60.85;100803.19;489843;108;930502;-76
2022/08/30 00:48:37;;;;;;;9.63;7.62;;;;;;;21.83;60.88;100813.17;490006;106;922972;-76
2022/08/30 00:49:48;;;;;;;7.64;6.71;;;;;;;21.83;60.87;100804.84;489794;108;923053;-76
2022/08/30 00:50:55;;;;;;;9.19;7.95;;;;;;;21.83;60.91;100810.40;490241;108;923001;-76
2022/08/30 00:52:01;;;;;;;8.58;7.47;;;;;;;21.83;61.01;100810.40;489814;108;922524;-77
2022/08/30 00:53:07;;;;;;;8.37;7.51;;;;;;;21.84;61.07;100810.09;480248;110;923067;-77
2022/08/30 00:54:11;;;;;;;7.36;6.58;;;;;;;21.87;61.04;100800.38;481255;108;922888;-77
2022/08/30 00:55:16;;;;;;;8.01;7.22;;;;;;;21.86;61.15;100813.42;489992;108;922574;-76
2022/08/30 00:56:22;;;;;;;10.21;7.33;;;;;;;21.88;61.09;100808.44;489910;108;922521;-77
2022/08/30 00:57:25;;;;;;;7.71;6.70;;;;;;;21.88;61.05;100815.93;489918;108;922446;-77
2022/08/30 00:58:31;;;;;;;7.61;6.46;;;;;;;21.86;61.10;100807.05;490486;108;922584;-77
2022/08/30 00:59:35;;;;;;;8.49;7.27;;;;;;;21.86;61.15;100815.38;491036;108;922952;-76
2022/08/30 01:00:39;;;;;;;7.76;6.97;;;;;;;21.85;61.19;100806.21;491176;108;922883;-76
2022/08/30 01:01:42;;;;;;;8.57;6.81;;;;;;;21.86;61.25;100812.59;491166;108;922569;-76
2022/08/30 01:02:45;;;;;;;8.85;6.91;;;;;;;21.86;61.12;100816.20;491142;108;930481;-76
2022/08/30 01:03:52;;;;;;;9.12;7.54;;;;;;;21.86;61.12;100816.20;490989;108;922758;-76
2022/08/30 01:04:56;;;;;;;9.43;7.96;;;;;;;21.87;61.42;100809.55;491050;108;923519;-76
2022/08/30 01:06:00;;;;;;;10.48;8.01;;;;;;;21.88;61.43;100811.21;491083;108;922618;-76
2022/08/30 01:07:03;;;;;;;8.04;6.24;;;;;;;21.89;61.10;100812.02;491113;108;922521;-77
2022/08/30 01:08:06;;;;;;;8.50;7.66;;;;;;;21.89;61.10;100812.02;491124;108;930458;-76
2022/08/30 01:09:10;;;;;;;9.34;7.01;;;;;;;21.88;61.47;100810.37;491094;108;922548;-77
2022/08/30 01:10:14;;;;;;;10.03;7.33;;;;;;;21.88;61.54;100813.98;491093;108;922481;-77
2022/08/30 01:11:20;;;;;;;14.86;8.20;;;;;;;21.87;61.95;100811.48;491056;108;930540;-77
2022/08/30 01:12:24;;;;;;;8.43;6.69;;;;;;;21.87;61.95;100811.48;490597;108;922926;-76
2022/08/30 01:13:27;;;;;;;8.14;7.35;;;;;;;21.88;61.56;100811.21;487283;106;922454;-76
2022/08/30 01:14:32;;;;;;;7.31;6.38;;;;;;;21.87;61.53;100808.71;487227;109;924561;-75
2022/08/30 01:15:37;;;;;;;7.96;7.19;;;;;;;21.85;61.50;100811.77;486902;109;923102;-76
2022/08/30 01:16:42;;;;;;;7.64;6.87;;;;;;;21.83;61.51;100813.17;486875;109;922635;-76
2022/08/30 01:17:46;;;;;;;7.67;6.92;;;;;;;21.81;61.57;100807.90;486733;109;922511;-76
2022/08/30 01:18:54;;;;;;;10.84;7.00;;;;;;;21.81;61.73;100815.39;486685;107;922866;-76
2022/08/30 01:20:07;;;;;;;12.05;8.08;;;;;;;21.79;61.68;100821.22;486731;109;922503;-75
2022/08/30 01:21:22;;;;;;;11.78;7.96;;;;;;;21.77;61.68;100817.92;486666;109;922573;-76
2022/08/30 01:22:35;;;;;;;14.23;7.67;;;;;;;21.75;61.73;100816.52;486757;109;923045;-76
2022/08/30 01:23:42;;;;;;;11.75;8.03;;;;;;;21.70;61.82;100811.83;486644;107;922503;-76
2022/08/30 01:24:49;;;;;;;14.58;8.27;;;;;;;21.68;61.92;100827.09;486743;109;922575;-76
2022/08/30 01:25:53;;;;;;;9.02;7.74;;;;;;;21.66;62.00;100826.56;486719;109;922519;-76
2022/08/30 01:26:57;;;;;;;9.42;8.09;;;;;;;21.63;62.11;100814.89;486729;109;922947;-76
2022/08/30 01:28:04;;;;;;;8.32;7.44;;;;;;;21.62;62.18;100820.72;486797;109;923322;-76
2022/08/30 01:29:11;;;;;;;9.31;7.13;;;;;;;21.61;62.25;100819.08;486678;107;922572;-76
2022/08/30 01:30:14;;;;;;;8.74;7.27;;;;;;;21.61;62.36;100821.86;494786;106;922538;-75
2022/08/30 01:31:18;;;;;;;8.68;7.86;;;;;;;21.60;62.42;100822.97;496252;106;923032;-77
2022/08/30 01:32:24;;;;;;;9.39;7.72;;;;;;;21.62;62.47;100827.10;496423;107;922482;-76
2022/08/30 01:33:30;;;;;;;9.57;7.72;;;;;;;21.63;62.50;100822.39;496232;106;922539;-76
2022/08/30 01:34:34;;;;;;;9.98;8.46;;;;;;;21.63;62.47;100827.94;489952;108;922544;-75
2022/08/30 01:35:43;;;;;;;8.30;7.50;;;;;;;21.62;62.45;100823.49;489955;108;922519;-76
2022/08/30 01:36:48;;;;;;;11.81;8.41;;;;;;;21.60;62.53;100823.80;490189;108;922618;-76
2022/08/30 01:37:51;;;;;;;8.83;7.72;;;;;;;21.60;62.55;100825.73;493766;107;922544;-76
2022/08/30 01:38:56;;;;;;;9.36;8.39;;;;;;;21.59;62.60;100824.91;495168;107;922974;-76
2022/08/30 01:39:59;;;;;;;12.82;8.39;;;;;;;21.59;62.64;100822.13;495082;107;930477;-76
2022/08/30 01:41:12;;;;;;;13.06;8.30;;;;;;;21.60;62.66;100826.58;495228;107;930553;-76
2022/08/30 01:42:16;;;;;;;8.49;7.66;;;;;;;21.61;62.72;100824.63;494421;107;923048;-76
2022/08/30 01:43:20;;;;;;;8.34;7.56;;;;;;;21.62;62.67;100824.33;495259;107;922542;-76
2022/08/30 01:44:23;;;;;;;11.76;8.27;;;;;;;21.62;62.65;100824.33;495347;107;922453;-76
2022/08/30 01:45:26;;;;;;;9.61;8.22;;;;;;;21.62;62.64;100826.27;495328;107;922833;-76
2022/08/30 01:46:34;;;;;;;9.23;8.19;;;;;;;21.61;62.61;100821.86;495263;107;923075;-76
2022/08/30 01:47:39;;;;;;;12.38;8.41;;;;;;;21.59;62.66;100824.91;495074;107;922613;-76
2022/08/30 01:48:43;;;;;;;15.96;9.17;;;;;;;21.58;62.69;100825.18;495161;107;922618;-75
2022/08/30 01:49:48;;;;;;;13.70;9.48;;;;;;;21.56;62.65;100821.84;494858;107;922439;-76
2022/08/30 01:50:51;;;;;;;10.99;8.98;;;;;;;21.55;62.67;100817.44;495244;107;923326;-76
2022/08/30 01:51:55;;;;;;;9.72;8.88;;;;;;;21.52;62.74;100824.36;495193;107;923022;-76
2022/08/30 01:53:00;;;;;;;11.95;9.46;;;;;;;21.50;62.79;100825.77;494908;107;923196;-76
2022/08/30 01:54:04;;;;;;;10.96;8.74;;;;;;;21.49;62.86;100824.11;495208;107;922506;-76
2022/08/30 01:55:08;;;;;;;10.77;9.48;;;;;;;21.48;62.89;100827.98;495149;107;922975;-76
2022/08/30 01:56:12;;;;;;;11.52;10.12;;;;;;;21.45;62.97;100818.27;495127;107;930570;-76
2022/08/30 01:57:19;;;;;;;13.07;10.16;;;;;;;21.43;62.99;100822.45;495091;107;922677;-76
2022/08/30 01:58:23;;;;;;;13.68;10.24;;;;;;;21.40;63.01;100823.83;493791;107;925007;-77
2022/08/30 01:59:26;;;;;;;14.98;10.85;;;;;;;21.38;63.13;100823.30;490441;108;923028;-77
2022/08/30 02:00:31;;;;;;;11.66;10.56;;;;;;;21.36;63.18;100827.45;490349;108;922530;-78
2022/08/30 02:01:38;;;;;;;12.65;10.06;;;;;;;21.34;63.37;100821.34;490353;108;923282;-78
2022/08/30 02:02:42;;;;;;;13.67;10.42;;;;;;;21.33;63.52;100825.25;490209;108;922807;-77
2022/08/30 02:03:47;;;;;;;11.71;10.59;;;;;;;21.33;63.71;100826.09;490357;108;922493;-77
2022/08/30 02:04:52;;;;;;;12.37;10.59;;;;;;;21.34;63.78;100821.34;490274;108;922823;-77
2022/08/30 02:05:55;;;;;;;15.99;10.48;;;;;;;21.35;63.85;100828.55;490430;108;922536;-77
2022/08/30 02:06:59;;;;;;;11.51;9.99;;;;;;;21.37;63.85;100829.12;490344;108;922499;-77
2022/08/30 02:08:03;;;;;;;17.24;10.97;;;;;;;21.37;64.03;100827.18;490386;108;930284;-77
2022/08/30 02:09:06;;;;;;;13.61;11.29;;;;;;;21.38;64.02;100826.08;492822;107;922597;-77
2022/08/30 02:10:09;;;;;;;15.06;10.21;;;;;;;21.40;64.05;100829.38;495260;107;922629;-76
2022/08/30 02:11:14;;;;;;;10.81;9.64;;;;;;;21.43;64.12;100830.77;495235;107;923801;-76
2022/08/30 02:12:17;;;;;;;10.79;9.80;;;;;;;21.44;64.14;100837.99;495190;107;922552;-76
2022/08/30 02:13:20;;;;;;;11.55;9.68;;;;;;;21.46;64.18;100830.20;495173;107;923515;-76
2022/08/30 02:14:24;;;;;;;12.61;10.31;;;;;;;21.48;64.15;100833.53;495222;107;930567;-77
2022/08/30 02:15:27;;;;;;;10.88;8.88;;;;;;;21.49;64.12;100836.03;491300;107;922605;-76
2022/08/30 02:16:31;;;;;;;10.36;9.06;;;;;;;21.52;64.09;100837.41;486165;109;930532;-76
2022/08/30 02:17:34;;;;;;;10.49;9.09;;;;;;;21.53;64.07;100831.58;486090;109;922520;-76
2022/08/30 02:18:38;;;;;;;11.33;9.79;;;;;;;21.55;63.98;100840.47;486080;109;930447;-76
2022/08/30 02:19:42;;;;;;;11.26;9.97;;;;;;;21.55;63.89;100836.86;486093;109;922595;-76
2022/08/30 02:20:45;;;;;;;11.06;9.60;;;;;;;21.55;63.78;100837.69;486124;109;922582;-77
2022/08/30 02:21:49;;;;;;;12.78;9.71;;;;;;;21.55;63.72;100836.86;486107;109;930133;-76
2022/08/30 02:22:52;;;;;;;12.13;9.21;;;;;;;21.53;63.73;100834.36;486110;109;922633;-74
2022/08/30 02:23:55;;;;;;;12.18;9.65;;;;;;;21.51;63.71;100827.41;486170;109;930458;-76
2022/08/30 02:24:59;;;;;;;16.71;9.72;;;;;;;21.51;63.60;100835.73;486206;109;922531;-77
2022/08/30 02:26:04;;;;;;;14.02;9.89;;;;;;;21.49;63.46;100837.98;486106;109;923062;-76
2022/08/30 02:27:07;;;;;;;10.86;9.80;;;;;;;21.45;63.38;100840.46;486096;109;922994;-76
2022/08/30 02:28:10;;;;;;;12.35;11.06;;;;;;;21.44;63.37;100840.77;486174;109;923023;-78
2022/08/30 02:29:15;;;;;;;11.64;9.52;;;;;;;21.42;63.33;100845.75;485700;109;922973;-77
2022/08/30 02:30:19;;;;;;;13.54;9.63;;;;;;;21.40;63.41;100842.41;503549;104;922593;-75
2022/08/30 02:31:23;;;;;;;15.93;8.85;;;;;;;21.40;63.52;100847.96;497746;104;930373;-76
2022/08/30 02:32:26;;;;;;;15.28;9.67;;;;;;;21.40;63.63;100842.41;495388;107;922997;-75
2022/08/30 02:33:30;;;;;;;25.65;11.16;;;;;;;21.41;63.48;100844.92;495203;105;922499;-75
2022/08/30 02:34:33;;;;;;;16.84;12.18;;;;;;;21.40;63.39;100847.96;486138;109;923108;-75
2022/08/30 02:35:36;;;;;;;18.47;12.29;;;;;;;21.37;63.32;100849.38;486259;109;922658;-76
2022/08/30 02:36:40;;;;;;;17.03;11.63;;;;;;;21.36;63.15;100844.09;486181;109;922659;-76
2022/08/30 02:37:44;;;;;;;12.30;10.01;;;;;;;21.33;63.09;100845.50;486096;109;922485;-76
2022/08/30 02:38:48;;;;;;;15.78;11.09;;;;;;;21.31;63.11;100847.71;486605;109;922473;-76
2022/08/30 02:39:51;;;;;;;16.18;11.22;;;;;;;21.31;63.25;100835.78;487248;109;922952;-76
2022/08/30 02:40:54;;;;;;;11.36;10.02;;;;;;;21.32;63.34;100843.00;487113;109;923091;-76
2022/08/30 02:41:58;;;;;;;11.61;10.15;;;;;;;21.33;63.30;100848.27;487262;109;927369;-76
2022/08/30 02:43:01;;;;;;;11.48;9.88;;;;;;;21.36;63.29;100846.87;487264;109;922589;-75
2022/08/30 02:44:05;;;;;;;13.17;10.28;;;;;;;21.36;63.30;100853.25;487202;109;922477;-76
2022/08/30 02:45:09;;;;;;;11.17;9.88;;;;;;;21.38;63.27;100845.48;487059;109;922648;-76
2022/08/30 02:46:13;;;;;;;11.51;10.35;;;;;;;21.40;63.28;100846.02;487084;109;930342;-76
2022/08/30 02:47:17;;;;;;;10.59;9.54;;;;;;;21.42;63.24;100851.30;487191;109;930071;-77
2022/08/30 02:48:20;;;;;;;14.75;9.13;;;;;;;21.44;63.07;100849.09;487260;109;923410;-76
2022/08/30 02:49:23;;;;;;;14.44;11.04;;;;;;;21.43;63.02;100851.03;487282;109;923158;-77
2022/08/30 02:50:29;;;;;;;10.64;9.66;;;;;;;21.44;62.95;100851.86;485769;109;922623;-76
2022/08/30 02:51:33;;;;;;;14.00;9.74;;;;;;;21.43;62.89;100850.20;487239;109;922932;-76
2022/08/30 02:52:36;;;;;;;11.96;10.34;;;;;;;21.41;62.79;100850.47;487288;109;922581;-76
2022/08/30 02:53:41;;;;;;;11.32;10.29;;;;;;;21.40;62.89;100850.73;487171;109;923133;-76
2022/08/30 02:54:45;;;;;;;12.52;11.25;;;;;;;21.40;62.95;100856.28;487104;109;923006;-76
2022/08/30 02:55:50;;;;;;;14.60;12.42;;;;;;;21.39;62.86;100846.33;487098;109;922525;-76
2022/08/30 02:56:53;;;;;;;12.78;11.47;;;;;;;21.38;62.82;100850.20;487316;109;923063;-75
2022/08/30 02:57:56;;;;;;;13.33;11.97;;;;;;;21.36;62.78;100850.48;487370;109;922565;-76
2022/08/30 02:58:59;;;;;;;16.91;12.07;;;;;;;21.35;62.74;100854.36;487255;109;923018;-77
2022/08/30 03:00:08;;;;;;;12.43;11.36;;;;;;;21.33;62.71;100850.22;487275;109;923009;-76
2022/08/30 03:01:14;;;;;;;12.47;10.77;;;;;;;21.31;62.80;100849.65;487126;109;922616;-77
2022/08/30 03:02:18;;;;;;;14.21;10.52;;;;;;;21.29;63.06;100854.63;487049;109;922535;-76
2022/08/30 03:03:22;;;;;;;12.41;9.89;;;;;;;21.27;63.08;100854.94;487127;109;922549;-76
2022/08/30 03:04:25;;;;;;;10.30;9.28;;;;;;;21.26;63.20;100855.20;487239;109;922479;-76
2022/08/30 03:05:31;;;;;;;11.57;10.44;;;;;;;21.25;63.30;100850.77;493197;106;930469;-76
2022/08/30 03:06:35;;;;;;;13.31;11.12;;;;;;;21.24;63.42;100858.25;496307;107;922488;-76
2022/08/30 03:07:40;;;;;;;16.62;11.57;;;;;;;21.25;63.68;100853.53;496448;107;922732;-76
2022/08/30 03:08:43;;;;;;;12.46;10.72;;;;;;;21.25;63.80;100856.31;496265;107;930468;-76
2022/08/30 03:09:46;;;;;;;20.66;11.48;;;;;;;21.28;63.89;100850.22;496410;107;922569;-77
2022/08/30 03:10:50;;;;;;;17.83;11.49;;;;;;;21.32;63.99;100856.87;496588;107;922983;-79
2022/08/30 03:11:53;;;;;;;11.41;10.28;;;;;;;21.35;64.06;100859.06;496520;106;922543;-75
2022/08/30 03:12:56;;;;;;;11.76;9.85;;;;;;;21.38;64.06;100861.30;496465;107;923040;-75
2022/08/30 03:14:00;;;;;;;9.95;9.01;;;;;;;21.41;64.05;100866.28;496377;107;922524;-79
2022/08/30 03:15:05;;;;;;;12.66;8.52;;;;;;;21.43;64.07;100859.35;495857;107;922846;-80
2022/08/30 03:16:08;;;;;;;9.26;8.02;;;;;;;21.46;64.01;100869.88;477384;111;923158;-79
2022/08/30 03:17:11;;;;;;;9.55;8.61;;;;;;;21.50;64.00;100864.61;478197;111;922610;-79
2022/08/30 03:18:18;;;;;;;9.77;8.18;;;;;;;21.52;63.90;100867.92;471368;111;922876;-76
2022/08/30 03:19:21;;;;;;;10.14;8.62;;;;;;;21.54;63.92;100866.55;471513;112;922647;-77
2022/08/30 03:20:25;;;;;;;9.69;8.60;;;;;;;21.56;63.83;100864.30;471574;112;922953;-77
2022/08/30 03:21:28;;;;;;;10.78;8.60;;;;;;;21.58;63.78;100867.64;471599;112;922582;-76
2022/08/30 03:22:31;;;;;;;9.69;8.16;;;;;;;21.61;63.66;100869.03;471694;112;922547;-76
2022/08/30 03:23:35;;;;;;;9.29;8.47;;;;;;;21.63;63.57;100864.84;471641;111;922524;-76
2022/08/30 03:24:38;;;;;;;10.33;9.30;;;;;;;21.65;63.47;100867.35;471570;112;922531;-76
2022/08/30 03:25:41;;;;;;;10.08;8.93;;;;;;;21.67;63.35;100870.66;471652;112;922631;-76
2022/08/30 03:26:45;;;;;;;11.50;9.58;;;;;;;21.69;63.34;100868.44;471559;112;922552;-76
2022/08/30 03:27:49;;;;;;;10.50;9.54;;;;;;;21.71;63.16;100870.95;471531;112;922903;-77
2022/08/30 03:28:53;;;;;;;14.49;10.01;;;;;;;21.72;63.02;100872.61;471575;111;923104;-76
2022/08/30 03:29:56;;;;;;;11.19;9.81;;;;;;;21.72;62.86;100872.61;470426;112;923108;-76
2022/08/30 03:30:59;;;;;;;11.88;9.94;;;;;;;21.73;62.82;100868.70;479929;109;922553;-75
2022/08/30 03:32:03;;;;;;;10.48;9.33;;;;;;;21.74;62.68;100873.14;483871;109;922940;-76
2022/08/30 03:33:06;;;;;;;11.90;9.64;;;;;;;21.74;62.68;100873.98;483868;109;923403;-76
2022/08/30 03:34:09;;;;;;;13.09;10.06;;;;;;;21.75;62.62;100869.26;475086;109;922614;-75
2022/08/30 03:35:13;;;;;;;10.24;9.01;;;;;;;21.77;62.56;100869.82;477543;111;923335;-76
2022/08/30 03:36:18;;;;;;;11.59;9.17;;;;;;;21.79;62.43;100873.12;477408;111;923348;-76
2022/08/30 03:37:22;;;;;;;11.72;10.03;;;;;;;21.79;62.40;100873.96;477547;111;922498;-76
2022/08/30 03:38:27;;;;;;;10.58;9.03;;;;;;;21.79;62.42;100873.12;467364;113;923025;-75
2022/08/30 03:39:30;;;;;;;10.79;9.73;;;;;;;21.81;62.35;100876.47;476612;109;922763;-76
2022/08/30 03:40:35;;;;;;;10.68;9.78;;;;;;;21.81;62.37;100874.52;485961;109;922871;-76
2022/08/30 03:41:40;;;;;;;11.26;9.01;;;;;;;21.83;62.33;100871.47;485997;109;922983;-75
2022/08/30 03:42:44;;;;;;;9.94;9.05;;;;;;;21.83;62.34;100871.47;486219;109;922631;-76
2022/08/30 03:43:47;;;;;;;11.33;9.49;;;;;;;21.84;62.24;100875.88;486010;108;922532;-75
2022/08/30 03:44:50;;;;;;;10.72;9.76;;;;;;;21.83;62.21;100872.27;486089;109;930246;-75
2022/08/30 03:45:53;;;;;;;11.61;10.28;;;;;;;21.85;62.25;100877.55;486247;109;922510;-76
2022/08/30 03:46:57;;;;;;;9.57;8.80;;;;;;;21.85;62.32;100872.84;486225;109;923068;-76
2022/08/30 03:48:01;;;;;;;11.61;9.14;;;;;;;21.86;62.31;100873.67;486168;109;922544;-76
2022/08/30 03:49:07;;;;;;;10.91;9.94;;;;;;;21.88;62.34;100871.45;485930;108;922541;-76
2022/08/30 03:50:13;;;;;;;11.43;10.18;;;;;;;21.89;62.40;100871.14;486022;109;922910;-76
2022/08/30 03:51:17;;;;;;;10.91;9.74;;;;;;;21.91;62.35;100871.70;474966;111;923108;-75
2022/08/30 03:52:20;;;;;;;14.92;9.33;;;;;;;21.94;62.32;100870.33;465902;113;922921;-76
2022/08/30 03:53:25;;;;;;;11.87;9.58;;;;;;;21.97;62.31;100867.00;486086;109;930408;-76
2022/08/30 03:54:30;;;;;;;11.54;10.16;;;;;;;21.98;62.20;100860.34;485938;109;922912;-75
2022/08/30 03:55:33;;;;;;;11.05;10.03;;;;;;;21.98;62.06;100869.50;486049;109;922475;-75
2022/08/30 03:56:37;;;;;;;15.81;10.65;;;;;;;22.00;62.01;100871.97;485888;109;930065;-75
2022/08/30 03:57:41;;;;;;;14.48;10.94;;;;;;;22.00;61.91;100867.25;486205;109;922721;-75
2022/08/30 03:58:46;;;;;;;12.26;10.92;;;;;;;22.01;61.94;100860.59;485734;109;922490;-75
2022/08/30 03:59:49;;;;;;;15.21;10.58;;;;;;;22.02;61.88;100869.75;485925;109;923016;-77
2022/08/30 04:00:52;;;;;;;13.41;12.07;;;;;;;22.03;61.96;100866.70;485985;109;922946;-76
2022/08/30 04:01:57;;;;;;;26.12;19.82;;;;;;;22.05;61.90;100861.67;493864;107;922621;-75
2022/08/30 04:03:00;;;;;;;25.01;18.58;;;;;;;22.05;61.75;100858.09;495100;107;922564;-75
2022/08/30 04:04:04;;;;;;;20.54;18.61;;;;;;;22.07;61.62;100860.56;495212;107;922593;-75
2022/08/30 04:05:09;;;;;;;18.05;16.36;;;;;;;22.07;61.55;100857.79;495288;107;923297;-76
2022/08/30 04:06:12;;;;;;;19.51;17.77;;;;;;;22.07;61.55;100857.79;495063;107;922485;-76
2022/08/30 04:07:18;;;;;;;17.94;16.29;;;;;;;22.09;61.47;100858.34;495233;107;923273;-75
2022/08/30 04:08:21;;;;;;;15.77;14.32;;;;;;;22.10;61.36;100860.02;495058;107;922915;-75
2022/08/30 04:09:25;;;;;;;15.45;13.96;;;;;;;22.10;61.32;100862.80;495212;107;923133;-76
2022/08/30 04:10:29;;;;;;;14.86;13.34;;;;;;;22.10;61.31;100865.57;495127;107;922827;-76
2022/08/30 04:11:32;;;;;;;16.35;14.63;;;;;;;22.09;61.33;100866.68;495140;107;930366;-75
2022/08/30 04:12:36;;;;;;;14.14;12.74;;;;;;;22.09;61.38;100861.13;495090;107;922513;-76
2022/08/30 04:13:42;;;;;;;16.73;12.77;;;;;;;22.09;61.35;100866.68;494868;107;922637;-76
2022/08/30 04:14:45;;;;;;;15.21;12.56;;;;;;;22.09;61.36;100863.91;495097;107;922578;-74
2022/08/30 04:15:49;;;;;;;13.18;11.44;;;;;;;22.07;61.26;100864.17;487612;107;922989;-77
2022/08/30 04:16:52;;;;;;;16.52;11.94;;;;;;;22.07;61.18;100871.67;485912;109;922633;-74
2022/08/30 04:17:56;;;;;;;14.68;11.15;;;;;;;22.03;61.17;100877.81;485957;109;922514;-76
2022/08/30 04:18:59;;;;;;;12.29;10.63;;;;;;;22.01;60.90;100880.03;485866;109;923230;-75
2022/08/30 04:20:03;;;;;;;12.56;11.23;;;;;;;21.99;60.81;100879.50;486008;109;923223;-75
2022/08/30 04:21:06;;;;;;;11.81;10.38;;;;;;;21.97;60.73;100880.88;485888;109;922873;-75
2022/08/30 04:22:11;;;;;;;15.41;11.26;;;;;;;21.95;60.67;100883.10;485582;109;922564;-75
2022/08/30 04:23:15;;;;;;;19.74;11.07;;;;;;;21.92;60.74;100880.87;485973;109;923212;-75
2022/08/30 04:24:18;;;;;;;14.96;12.25;;;;;;;21.90;60.74;100875.59;485901;109;922955;-75
2022/08/30 04:25:22;;;;;;;13.35;12.11;;;;;;;21.90;60.79;100883.92;486063;109;922546;-76
2022/08/30 04:26:25;;;;;;;13.63;11.73;;;;;;;21.91;60.88;100890.31;485943;109;923008;-76
2022/08/30 04:27:31;;;;;;;18.27;12.81;;;;;;;21.93;60.94;100882.54;485652;109;930335;-75
2022/08/30 04:28:34;;;;;;;12.91;11.78;;;;;;;21.94;60.95;100878.66;486041;109;923017;-76
2022/08/30 04:29:38;;;;;;;15.17;13.53;;;;;;;21.96;61.05;100882.83;489472;104;922496;-76
2022/08/30 04:30:43;;;;;;;15.13;13.67;;;;;;;22.00;61.08;100880.30;504595;104;930221;-75
2022/08/30 04:31:46;;;;;;;16.35;14.71;;;;;;;22.02;61.08;100883.64;495126;107;922853;-76
2022/08/30 04:32:50;;;;;;;18.41;16.26;;;;;;;22.05;60.95;100872.78;495326;107;922513;-75
2022/08/30 04:33:55;;;;;;;20.91;18.12;;;;;;;22.08;60.91;100888.06;495356;107;922493;-75
2022/08/30 04:34:58;;;;;;;23.41;19.20;;;;;;;22.10;60.82;100882.23;496453;107;922559;-76
2022/08/30 04:36:04;;;;;;;22.56;19.35;;;;;;;22.13;60.76;100889.98;496225;107;922498;-76
2022/08/30 04:37:08;;;;;;;20.62;18.68;;;;;;;22.16;60.72;100886.66;496105;107;923259;-76
2022/08/30 04:38:13;;;;;;;18.91;16.80;;;;;;;22.19;60.63;100886.07;496206;107;922547;-76
2022/08/30 04:39:19;;;;;;;19.62;16.78;;;;;;;22.21;60.53;100886.63;495929;106;922490;-76
2022/08/30 04:40:24;;;;;;;17.94;15.47;;;;;;;22.21;60.35;100890.24;486838;109;922577;-76
2022/08/30 04:41:27;;;;;;;19.44;17.35;;;;;;;22.22;60.30;100888.30;487067;109;922512;-76
2022/08/30 04:42:32;;;;;;;20.23;16.74;;;;;;;22.23;60.22;100890.77;487048;109;923024;-77
2022/08/30 04:43:36;;;;;;;20.50;16.82;;;;;;;22.24;60.21;100888.83;486807;109;922585;-74
2022/08/30 04:44:39;;;;;;;17.52;15.51;;;;;;;22.23;60.11;100890.77;487057;109;922631;-75
2022/08/30 04:45:42;;;;;;;20.34;15.19;;;;;;;22.23;60.05;100889.94;487036;109;922519;-76
2022/08/30 04:46:45;;;;;;;19.42;16.28;;;;;;;22.24;60.10;100891.60;487019;109;922525;-76
2022/08/30 04:47:48;;;;;;;24.37;16.23;;;;;;;22.25;60.10;100890.49;487018;109;922514;-76
2022/08/30 04:48:52;;;;;;;21.71;16.92;;;;;;;22.23;60.24;100887.98;486953;109;922602;-75
2022/08/30 04:49:55;;;;;;;19.90;17.41;;;;;;;22.26;60.28;100887.44;487017;109;922544;-76
2022/08/30 04:50:58;;;;;;;22.01;16.91;;;;;;;22.28;60.33;100887.13;486923;109;922732;-75
2022/08/30 04:52:02;;;;;;;24.74;14.96;;;;;;;22.31;60.31;100897.69;487013;109;922588;-77